createdAt,value
2018-07-13T00:00:40.628Z,12.34
2018-07-13T00:01:40.736Z,12.12
2018-07-13T00:02:40.680Z,12.12
2018-07-13T00:03:40.679Z,12.33
2018-07-13T00:04:40.736Z,12.35
2018-07-13T00:05:40.643Z,12.21
2018-07-13T00:06:40.677Z,12.13
2018-07-13T00:07:40.648Z,12.2
2018-07-13T00:08:40.694Z,12.35
2018-07-13T00:09:40.632Z,12.33
2018-07-13T00:10:40.626Z,12.38
2018-07-13T00:11:40.651Z,12.43
2018-07-13T00:12:40.787Z,12.35
2018-07-13T00:13:40.619Z,12.33
2018-07-13T00:14:40.632Z,12.29
2018-07-13T00:15:40.626Z,12.37
2018-07-13T00:16:40.654Z,12.39
2018-07-13T00:17:40.645Z,12.28
2018-07-13T00:18:40.719Z,12.23
2018-07-13T00:19:40.628Z,12.14
2018-07-13T00:20:40.668Z,12.33
2018-07-13T00:21:40.664Z,12.21
2018-07-13T00:22:40.641Z,12.39
2018-07-13T00:23:40.676Z,12.36
2018-07-13T00:24:40.656Z,12.34
2018-07-13T00:25:40.650Z,12.27
2018-07-13T00:26:40.628Z,12.25
2018-07-13T00:27:40.620Z,12.09
2018-07-13T00:28:40.635Z,12.4
2018-07-13T00:29:40.686Z,12.19
2018-07-13T00:30:40.649Z,12.33
2018-07-13T00:31:40.648Z,12.28
2018-07-13T00:32:40.638Z,12.25
2018-07-13T00:33:40.658Z,12.22
2018-07-13T00:34:40.652Z,12.07
2018-07-13T00:35:40.637Z,12.36
2018-07-13T00:36:40.678Z,12.41
2018-07-13T00:37:40.689Z,12.36
2018-07-13T00:38:40.646Z,12.26
2018-07-13T00:39:40.673Z,12.19
2018-07-13T00:40:40.661Z,12.31
2018-07-13T00:41:40.664Z,12.17
2018-07-13T00:42:40.847Z,12.28
2018-07-13T00:43:40.681Z,12.28
2018-07-13T00:44:40.694Z,12.29
2018-07-13T00:45:40.767Z,12.22
2018-07-13T00:46:40.691Z,12.23
2018-07-13T00:47:40.718Z,12.22
2018-07-13T00:48:40.716Z,12.29
2018-07-13T00:49:40.653Z,12.26
2018-07-13T00:50:40.670Z,12.33
2018-07-13T00:51:40.674Z,12.28
2018-07-13T00:52:40.660Z,12.34
2018-07-13T00:53:40.663Z,12.32
2018-07-13T00:54:40.802Z,12.18
2018-07-13T00:55:40.690Z,12.33
2018-07-13T00:56:40.849Z,12.32
2018-07-13T00:57:40.678Z,12.23
2018-07-13T00:58:41.037Z,12.16
2018-07-13T00:59:40.749Z,12.18
2018-07-13T01:00:40.669Z,12.22
2018-07-13T01:01:40.951Z,12.25
2018-07-13T01:02:40.709Z,12.21
2018-07-13T01:03:40.830Z,12.27
2018-07-13T01:04:40.707Z,12.28
2018-07-13T01:05:40.720Z,12.13
2018-07-13T01:06:41.053Z,12.18
2018-07-13T01:07:40.656Z,11.96
2018-07-13T01:08:40.670Z,12
2018-07-13T01:09:40.657Z,12.08
2018-07-13T01:10:40.706Z,12.35
2018-07-13T01:11:40.659Z,12.33
2018-07-13T01:12:40.732Z,12.32
2018-07-13T01:13:40.695Z,12.32
2018-07-13T01:14:41.037Z,12.35
2018-07-13T01:15:40.677Z,12.19
2018-07-13T01:16:40.687Z,12.19
2018-07-13T01:17:40.720Z,12.23
2018-07-13T01:18:40.861Z,12.09
2018-07-13T01:19:40.691Z,12.29
2018-07-13T01:20:40.710Z,12.37
2018-07-13T01:21:40.668Z,12.07
2018-07-13T01:22:40.778Z,12.1
2018-07-13T01:23:40.667Z,12.37
2018-07-13T01:24:40.686Z,12.34
2018-07-13T01:25:40.691Z,12.22
2018-07-13T01:26:40.750Z,12.1
2018-07-13T01:27:40.666Z,12.23
2018-07-13T01:28:40.721Z,12.03
2018-07-13T01:29:40.711Z,12.02
2018-07-13T01:30:40.713Z,12.06
2018-07-13T01:31:40.684Z,12.36
2018-07-13T01:32:40.686Z,12.21
2018-07-13T01:33:40.714Z,12.14
2018-07-13T01:34:40.685Z,12.23
2018-07-13T01:35:40.717Z,12.18
2018-07-13T01:36:40.740Z,12.18
2018-07-13T01:37:40.685Z,12.28
2018-07-13T01:38:40.702Z,12.37
2018-07-13T01:39:40.695Z,12.34
2018-07-13T01:40:40.710Z,12.34
2018-07-13T01:41:40.672Z,12.26
2018-07-13T01:42:40.690Z,12.35
2018-07-13T01:43:40.685Z,12.26
2018-07-13T01:44:40.712Z,12.29
2018-07-13T01:45:40.709Z,12.26
2018-07-13T01:46:40.748Z,12.38
2018-07-13T01:47:40.713Z,12.22
2018-07-13T01:48:40.727Z,12.17
2018-07-13T01:49:40.709Z,12.11
2018-07-13T01:50:40.736Z,12.28
2018-07-13T01:51:40.730Z,12.29
2018-07-13T01:52:40.677Z,12.42
2018-07-13T01:53:40.702Z,12.41
2018-07-13T01:54:40.705Z,12.46
2018-07-13T01:55:41.537Z,12.45
2018-07-13T01:56:40.678Z,12.39
2018-07-13T01:57:40.682Z,12.39
2018-07-13T01:58:40.801Z,12.42
2018-07-13T01:59:40.891Z,12.42
2018-07-13T02:00:40.765Z,12.52
2018-07-13T02:01:40.845Z,12.5
2018-07-13T02:02:40.729Z,12.57
2018-07-13T02:03:40.741Z,12.54
2018-07-13T02:04:40.818Z,12.42
2018-07-13T02:05:40.751Z,12.51
2018-07-13T02:06:40.726Z,12.45
2018-07-13T02:07:40.704Z,12.28
2018-07-13T02:08:40.770Z,12.48
2018-07-13T02:09:40.736Z,12.44
2018-07-13T02:10:40.715Z,12.36
2018-07-13T02:11:40.756Z,12.25
2018-07-13T02:12:40.768Z,12.26
2018-07-13T02:13:40.731Z,12.22
2018-07-13T02:14:40.731Z,12.21
2018-07-13T02:15:40.735Z,12.2
2018-07-13T02:16:40.696Z,12.16
2018-07-13T02:17:40.696Z,12.03
2018-07-13T02:18:40.813Z,12.2
2018-07-13T02:19:40.715Z,12.24
2018-07-13T02:20:40.756Z,12.21
2018-07-13T02:21:40.725Z,12.23
2018-07-13T02:22:40.753Z,12.01
2018-07-13T02:23:40.731Z,12.04
2018-07-13T02:24:40.899Z,12.05
2018-07-13T02:25:40.700Z,12.18
2018-07-13T02:26:40.765Z,12.23
2018-07-13T02:27:40.756Z,12.21
2018-07-13T02:28:40.701Z,12.14
2018-07-13T02:29:41.239Z,12.17
2018-07-13T02:30:40.921Z,12.15
2018-07-13T02:31:40.713Z,12.19
2018-07-13T02:32:40.721Z,12.19
2018-07-13T02:33:40.832Z,12.06
2018-07-13T02:34:40.745Z,12.2
2018-07-13T02:35:40.862Z,12.12
2018-07-13T02:36:40.763Z,12.03
2018-07-13T02:37:40.757Z,12.06
2018-07-13T02:38:40.775Z,12.09
2018-07-13T02:39:40.742Z,12.12
2018-07-13T02:40:40.720Z,12.12
2018-07-13T02:41:40.897Z,12.24
2018-07-13T02:42:40.846Z,12.06
2018-07-13T02:43:40.763Z,12.06
2018-07-13T02:44:40.740Z,11.99
2018-07-13T02:45:40.761Z,11.99
2018-07-13T02:46:40.752Z,12.06
2018-07-13T02:47:40.713Z,12.17
2018-07-13T02:48:40.731Z,12.19
2018-07-13T02:49:40.831Z,12.25
2018-07-13T02:50:40.760Z,12.12
2018-07-13T02:51:40.923Z,12.2
2018-07-13T02:52:40.817Z,12.15
2018-07-13T02:53:40.786Z,12.15
2018-07-13T02:54:40.761Z,12.21
2018-07-13T02:55:40.798Z,12.19
2018-07-13T02:56:40.730Z,12.22
2018-07-13T02:57:40.748Z,12.23
2018-07-13T02:58:40.746Z,12.29
2018-07-13T02:59:41.198Z,12.16
2018-07-13T03:00:40.763Z,12.14
2018-07-13T03:01:40.763Z,12.47
2018-07-13T03:02:40.794Z,12.31
2018-07-13T03:03:40.746Z,12.17
2018-07-13T03:04:40.817Z,12.14
2018-07-13T03:05:40.794Z,12.12
2018-07-13T03:06:40.799Z,12.14
2018-07-13T03:07:40.820Z,12.11
2018-07-13T03:08:40.766Z,12.13
2018-07-13T03:09:40.753Z,12.04
2018-07-13T03:10:40.741Z,12.08
2018-07-13T03:11:40.768Z,12.01
2018-07-13T03:12:40.739Z,11.91
2018-07-13T03:13:40.759Z,11.99
2018-07-13T03:14:40.893Z,12
2018-07-13T03:15:40.752Z,11.98
2018-07-13T03:16:40.771Z,11.93
2018-07-13T03:17:40.972Z,12.04
2018-07-13T03:18:40.752Z,11.94
2018-07-13T03:19:40.944Z,11.91
2018-07-13T03:20:40.756Z,11.83
2018-07-13T03:21:40.886Z,11.81
2018-07-13T03:22:40.821Z,11.81
2018-07-13T03:23:40.768Z,11.75
2018-07-13T03:24:40.797Z,11.76
2018-07-13T03:25:40.823Z,11.75
2018-07-13T03:26:40.765Z,11.81
2018-07-13T03:27:40.807Z,11.8
2018-07-13T03:28:40.761Z,11.79
2018-07-13T03:29:40.749Z,11.73
2018-07-13T03:30:40.847Z,11.66
2018-07-13T03:31:40.769Z,11.76
2018-07-13T03:32:40.780Z,11.76
2018-07-13T03:33:40.763Z,11.74
2018-07-13T03:34:40.800Z,11.77
2018-07-13T03:35:40.830Z,11.74
2018-07-13T03:36:40.772Z,11.76
2018-07-13T03:37:40.781Z,11.77
2018-07-13T03:38:40.760Z,11.78
2018-07-13T03:39:40.797Z,11.74
2018-07-13T03:40:40.765Z,11.76
2018-07-13T03:41:40.815Z,11.79
2018-07-13T03:42:41.309Z,11.76
2018-07-13T03:43:40.756Z,11.72
2018-07-13T03:44:40.758Z,11.64
2018-07-13T03:45:40.777Z,11.68
2018-07-13T03:46:40.742Z,11.72
2018-07-13T03:47:40.840Z,11.76
2018-07-13T03:48:40.856Z,11.77
2018-07-13T03:49:40.781Z,11.7
2018-07-13T03:50:40.787Z,11.73
2018-07-13T03:51:40.792Z,11.74
2018-07-13T03:52:40.803Z,11.71
2018-07-13T03:53:40.759Z,11.74
2018-07-13T03:54:40.813Z,11.71
2018-07-13T03:55:40.835Z,11.6
2018-07-13T03:56:40.816Z,11.71
2018-07-13T03:57:40.827Z,11.69
2018-07-13T03:58:40.821Z,11.72
2018-07-13T03:59:40.859Z,11.71
2018-07-13T04:00:40.797Z,11.7
2018-07-13T04:01:40.798Z,11.61
2018-07-13T04:02:40.928Z,11.61
2018-07-13T04:03:40.791Z,11.74
2018-07-13T04:04:40.801Z,11.78
2018-07-13T04:05:40.825Z,11.66
2018-07-13T04:06:40.849Z,11.82
2018-07-13T04:07:40.782Z,11.86
2018-07-13T04:08:40.836Z,11.88
2018-07-13T04:09:40.820Z,11.94
2018-07-13T04:10:40.806Z,12.06
2018-07-13T04:11:40.798Z,11.84
2018-07-13T04:12:40.804Z,11.87
2018-07-13T04:13:40.804Z,11.85
2018-07-13T04:14:41.156Z,12.06
2018-07-13T04:15:40.819Z,12.03
2018-07-13T04:16:40.810Z,11.99
2018-07-13T04:17:40.773Z,11.95
2018-07-13T04:18:41.598Z,11.96
2018-07-13T04:19:41.528Z,11.99
2018-07-13T04:20:41.520Z,11.92
2018-07-13T04:21:41.574Z,12.03
2018-07-13T04:22:41.561Z,12.08
2018-07-13T04:23:41.583Z,12.03
2018-07-13T04:24:41.528Z,11.94
2018-07-13T04:25:41.652Z,12.06
2018-07-13T04:26:41.555Z,12.14
2018-07-13T04:27:41.557Z,12.16
2018-07-13T04:28:41.711Z,12.18
2018-07-13T04:29:41.541Z,12.08
2018-07-13T04:30:41.549Z,12.14
2018-07-13T04:31:41.760Z,12.11
2018-07-13T04:32:41.573Z,12.03
2018-07-13T04:33:41.914Z,12.11
2018-07-13T04:34:41.622Z,12.21
2018-07-13T04:35:41.519Z,12.05
2018-07-13T04:36:41.563Z,12.16
2018-07-13T04:37:41.647Z,12.05
2018-07-13T04:38:41.609Z,12.31
2018-07-13T04:39:41.564Z,12.18
2018-07-13T04:40:41.737Z,12.32
2018-07-13T04:41:41.557Z,12.15
2018-07-13T04:42:41.630Z,12.14
2018-07-13T04:43:41.547Z,12.25
2018-07-13T04:44:41.557Z,12.27
2018-07-13T04:45:41.669Z,12.11
2018-07-13T04:46:41.656Z,12.08
2018-07-13T04:47:41.569Z,12.21
2018-07-13T04:48:41.751Z,12.17
2018-07-13T04:49:41.682Z,12.07
2018-07-13T04:50:41.545Z,12.23
2018-07-13T04:51:42.041Z,12.21
2018-07-13T04:52:41.850Z,12.25
2018-07-13T04:53:41.658Z,12.31
2018-07-13T04:54:41.554Z,12.24
2018-07-13T04:55:41.531Z,12.13
2018-07-13T04:56:41.572Z,12.14
2018-07-13T04:57:41.697Z,12.22
2018-07-13T04:58:41.505Z,12.23
2018-07-13T04:59:41.585Z,12.22
2018-07-13T05:00:42.227Z,12.19
2018-07-13T05:01:41.722Z,12.25
2018-07-13T05:02:41.624Z,12.31
2018-07-13T05:03:41.617Z,12.31
2018-07-13T05:04:41.591Z,12.55
2018-07-13T05:05:41.382Z,12.31
2018-07-13T05:06:41.638Z,12.33
2018-07-13T05:07:41.559Z,12.27
2018-07-13T05:08:41.572Z,12.4
2018-07-13T05:09:41.571Z,12.59
2018-07-13T05:10:41.626Z,12.49
2018-07-13T05:11:41.637Z,12.52
2018-07-13T05:12:41.602Z,12.59
2018-07-13T05:13:41.612Z,12.44
2018-07-13T05:14:41.665Z,12.34
2018-07-13T05:15:41.820Z,12.55
2018-07-13T05:16:41.647Z,12.56
2018-07-13T05:17:40.893Z,12.51
2018-07-13T05:18:41.751Z,12.54
2018-07-13T05:19:40.825Z,12.52
2018-07-13T05:20:41.555Z,12.59
2018-07-13T05:21:41.107Z,12.52
2018-07-13T05:22:41.578Z,12.67
2018-07-13T05:23:40.918Z,12.78
2018-07-13T05:24:41.627Z,12.65
2018-07-13T05:25:41.786Z,12.76
2018-07-13T05:26:40.885Z,12.64
2018-07-13T05:27:41.516Z,12.58
2018-07-13T05:28:41.549Z,12.74
2018-07-13T05:29:41.548Z,12.72
2018-07-13T05:30:41.832Z,12.69
2018-07-13T05:31:40.827Z,12.77
2018-07-13T05:32:41.522Z,12.8
2018-07-13T05:33:40.872Z,12.66
2018-07-13T05:34:40.821Z,12.6
2018-07-13T05:35:40.841Z,12.74
2018-07-13T05:36:40.853Z,12.83
2018-07-13T05:37:40.840Z,12.75
2018-07-13T05:38:40.849Z,12.78
2018-07-13T05:39:41.545Z,12.85
2018-07-13T05:40:41.532Z,12.75
2018-07-13T05:41:40.854Z,12.73
2018-07-13T05:42:40.872Z,12.92
2018-07-13T05:43:41.539Z,12.9
2018-07-13T05:44:40.879Z,12.87
2018-07-13T05:45:44.868Z,12.91
2018-07-13T05:46:42.207Z,12.89
2018-07-13T05:47:41.133Z,12.91
2018-07-13T05:48:40.856Z,13.01
2018-07-13T05:49:41.841Z,13.09
2018-07-13T05:50:40.860Z,13.06
2018-07-13T05:51:40.847Z,12.92
2018-07-13T05:52:40.830Z,12.95
2018-07-13T05:53:41.907Z,12.91
2018-07-13T05:54:41.628Z,13
2018-07-13T05:55:40.845Z,12.99
2018-07-13T05:56:40.860Z,13.07
2018-07-13T05:57:40.889Z,12.99
2018-07-13T05:58:41.896Z,12.97
2018-07-13T05:59:41.548Z,13.01
2018-07-13T06:00:41.827Z,12.95
2018-07-13T06:01:40.867Z,12.99
2018-07-13T06:02:41.754Z,13.01
2018-07-13T06:03:40.860Z,13.17
2018-07-13T06:04:40.875Z,13.12
2018-07-13T06:05:41.668Z,13.11
2018-07-13T06:06:40.847Z,13.12
2018-07-13T06:07:40.865Z,13.15
2018-07-13T06:08:41.770Z,13.26
2018-07-13T06:09:41.977Z,13.19
2018-07-13T06:10:40.873Z,13.35
2018-07-13T06:11:41.798Z,13.26
2018-07-13T06:12:40.883Z,13.21
2018-07-13T06:13:40.864Z,13.26
2018-07-13T06:14:42.019Z,13.2
2018-07-13T06:15:42.062Z,13.41
2018-07-13T06:16:41.649Z,13.29
2018-07-13T06:17:41.305Z,13.25
2018-07-13T06:18:41.030Z,13.26
2018-07-13T06:19:41.041Z,13.31
2018-07-13T06:20:40.921Z,13.29
2018-07-13T06:21:40.942Z,13.25
2018-07-13T06:22:40.909Z,13.24
2018-07-13T06:23:40.907Z,13.29
2018-07-13T06:24:40.872Z,13.3
2018-07-13T06:25:40.930Z,13.23
2018-07-13T06:26:41.904Z,13.41
2018-07-13T06:27:40.884Z,13.43
2018-07-13T06:28:41.007Z,13.37
2018-07-13T06:29:40.881Z,13.28
2018-07-13T06:30:40.880Z,13.31
2018-07-13T06:31:41.035Z,13.27
2018-07-13T06:32:41.069Z,13.28
2018-07-13T06:33:41.161Z,13.33
2018-07-13T06:34:40.908Z,13.29
2018-07-13T06:35:41.008Z,13.42
2018-07-13T06:36:42.167Z,13.35
2018-07-13T06:37:41.077Z,13.36
2018-07-13T06:38:41.032Z,13.33
2018-07-13T06:39:40.984Z,13.37
2018-07-13T06:40:41.065Z,13.45
2018-07-13T06:41:40.936Z,13.47
2018-07-13T06:42:41.078Z,13.44
2018-07-13T06:43:41.103Z,13.47
2018-07-13T06:44:41.144Z,13.55
2018-07-13T06:45:40.999Z,13.58
2018-07-13T06:46:41.048Z,13.58
2018-07-13T06:47:40.888Z,13.58
2018-07-13T06:48:41.002Z,13.61
2018-07-13T06:49:40.905Z,13.64
2018-07-13T06:50:42.003Z,13.62
2018-07-13T06:51:40.919Z,13.66
2018-07-13T06:52:42.218Z,13.55
2018-07-13T06:53:40.962Z,13.56
2018-07-13T06:54:41.055Z,13.56
2018-07-13T06:55:40.882Z,13.55
2018-07-13T06:56:41.218Z,13.53
2018-07-13T06:57:40.951Z,13.62
2018-07-13T06:58:40.918Z,13.63
2018-07-13T06:59:41.028Z,13.62
2018-07-13T07:00:41.066Z,13.61
2018-07-13T07:01:41.104Z,13.65
2018-07-13T07:02:40.944Z,13.72
2018-07-13T07:03:41.012Z,13.65
2018-07-13T07:04:41.003Z,13.58
2018-07-13T07:05:40.929Z,13.56
2018-07-13T07:06:40.924Z,13.57
2018-07-13T07:07:42.043Z,13.59
2018-07-13T07:08:40.891Z,13.62
2018-07-13T07:09:40.922Z,13.6
2018-07-13T07:10:40.929Z,13.65
2018-07-13T07:11:40.965Z,13.64
2018-07-13T07:12:40.963Z,13.7
2018-07-13T07:13:40.983Z,13.76
2018-07-13T07:14:41.082Z,13.86
2018-07-13T07:15:41.009Z,13.81
2018-07-13T07:16:41.002Z,13.73
2018-07-13T07:17:41.756Z,13.71
2018-07-13T07:18:41.621Z,13.77
2018-07-13T07:19:40.994Z,13.94
2018-07-13T07:20:40.971Z,13.85
2018-07-13T07:21:41.551Z,14.01
2018-07-13T07:22:40.955Z,13.85
2018-07-13T07:23:41.000Z,13.81
2018-07-13T07:24:41.028Z,13.88
2018-07-13T07:25:41.513Z,13.87
2018-07-13T07:26:41.059Z,13.92
2018-07-13T07:27:41.020Z,13.91
2018-07-13T07:28:40.910Z,13.91
2018-07-13T07:29:40.991Z,13.95
2018-07-13T07:30:42.257Z,13.94
2018-07-13T07:31:41.020Z,13.99
2018-07-13T07:32:40.964Z,14.01
2018-07-13T07:33:41.103Z,14.06
2018-07-13T07:34:41.072Z,13.96
2018-07-13T07:35:41.074Z,13.95
2018-07-13T07:36:41.348Z,14.04
2018-07-13T07:37:41.040Z,14.09
2018-07-13T07:38:41.118Z,14.12
2018-07-13T07:39:40.994Z,14.09
2018-07-13T07:40:41.072Z,14.01
2018-07-13T07:41:41.042Z,14.04
2018-07-13T07:42:40.938Z,14.05
2018-07-13T07:43:41.032Z,14.08
2018-07-13T07:44:41.038Z,14.04
2018-07-13T07:45:41.100Z,14.07
2018-07-13T07:46:41.046Z,14.07
2018-07-13T07:47:41.164Z,14.02
2018-07-13T07:48:41.085Z,13.97
2018-07-13T07:49:41.045Z,13.96
2018-07-13T07:50:41.031Z,14.02
2018-07-13T07:51:41.018Z,14.2
2018-07-13T07:52:40.989Z,14.15
2018-07-13T07:53:40.947Z,14.09
2018-07-13T07:54:40.933Z,14.23
2018-07-13T07:55:40.978Z,14.15
2018-07-13T07:56:40.942Z,14.08
2018-07-13T07:57:41.154Z,14.09
2018-07-13T07:58:41.046Z,14.01
2018-07-13T07:59:41.074Z,14.04
2018-07-13T08:00:40.980Z,14.14
2018-07-13T08:01:41.288Z,14.26
2018-07-13T08:02:41.013Z,14.1
2018-07-13T08:03:41.053Z,14.3
2018-07-13T08:04:41.001Z,14.26
2018-07-13T08:05:41.145Z,14.21
2018-07-13T08:06:42.627Z,14.26
2018-07-13T08:07:41.781Z,14.16
2018-07-13T08:08:41.108Z,14.12
2018-07-13T08:09:40.986Z,14.22
2018-07-13T08:10:41.164Z,14.22
2018-07-13T08:11:41.120Z,14.48
2018-07-13T08:12:41.069Z,14.1
2018-07-13T08:13:41.427Z,14.09
2018-07-13T08:14:41.805Z,14.09
2018-07-13T08:15:40.998Z,14.11
2018-07-13T08:16:41.104Z,14.17
2018-07-13T08:17:44.914Z,14.27
2018-07-13T08:18:41.037Z,14.25
2018-07-13T08:19:41.064Z,14.48
2018-07-13T08:20:40.998Z,14.32
2018-07-13T08:21:40.976Z,14.21
2018-07-13T08:22:40.983Z,14.22
2018-07-13T08:23:40.952Z,14.06
2018-07-13T08:24:40.979Z,14.16
2018-07-13T08:25:40.969Z,14.26
2018-07-13T08:26:41.361Z,14.34
2018-07-13T08:27:41.039Z,14.48
2018-07-13T08:28:40.996Z,14.41
2018-07-13T08:29:41.003Z,14.48
2018-07-13T08:30:40.937Z,14.5
2018-07-13T08:31:41.100Z,14.48
2018-07-13T08:32:40.987Z,14.41
2018-07-13T08:33:40.956Z,14.44
2018-07-13T08:34:40.961Z,14.46
2018-07-13T08:35:41.079Z,14.16
2018-07-13T08:36:40.976Z,14.21
2018-07-13T08:37:41.127Z,14.3
2018-07-13T08:38:40.994Z,14.21
2018-07-13T08:39:40.994Z,14.3
2018-07-13T08:40:40.962Z,14.29
2018-07-13T08:41:40.946Z,14.49
2018-07-13T08:42:41.055Z,14.52
2018-07-13T08:43:41.118Z,14.3
2018-07-13T08:44:40.942Z,14.2
2018-07-13T08:45:41.201Z,14.26
2018-07-13T08:46:40.944Z,14.36
2018-07-13T08:47:40.990Z,14.38
2018-07-13T08:48:40.969Z,14.3
2018-07-13T08:49:41.046Z,14.12
2018-07-13T08:50:41.027Z,14.23
2018-07-13T08:51:41.631Z,14.23
2018-07-13T08:52:41.027Z,14.16
2018-07-13T08:53:41.014Z,14.15
2018-07-13T08:54:41.073Z,14.25
2018-07-13T08:55:40.966Z,14.45
2018-07-13T08:56:41.166Z,14.25
2018-07-13T08:57:41.031Z,14.34
2018-07-13T08:58:41.133Z,14.22
2018-07-13T08:59:41.292Z,14.32
2018-07-13T09:00:41.091Z,13.98
2018-07-13T09:01:41.374Z,13.98
2018-07-13T09:02:40.982Z,14.16
2018-07-13T09:03:41.041Z,14.03
2018-07-13T09:04:41.072Z,14.12
2018-07-13T09:05:41.441Z,14.09
2018-07-13T09:06:41.117Z,13.96
2018-07-13T09:07:41.388Z,14.2
2018-07-13T09:08:41.049Z,14.13
2018-07-13T09:09:41.029Z,14.22
2018-07-13T09:10:41.236Z,14.4
2018-07-13T09:11:41.143Z,14.27
2018-07-13T09:12:41.589Z,14.09
2018-07-13T09:13:41.092Z,13.6
2018-07-13T09:14:41.021Z,13.55
2018-07-13T09:15:40.989Z,13.66
2018-07-13T09:16:40.942Z,13.69
2018-07-13T09:17:40.984Z,13.84
2018-07-13T09:18:41.062Z,13.72
2018-07-13T09:19:40.936Z,13.72
2018-07-13T09:20:41.091Z,13.66
2018-07-13T09:21:41.259Z,13.76
2018-07-13T09:22:41.038Z,13.57
2018-07-13T09:23:41.044Z,13.87
2018-07-13T09:24:41.109Z,13.94
2018-07-13T09:25:41.024Z,13.45
2018-07-13T09:26:41.024Z,12.88
2018-07-13T09:27:41.100Z,13.35
2018-07-13T09:28:41.058Z,13.22
2018-07-13T09:29:41.132Z,12.86
2018-07-13T09:30:41.046Z,13.13
2018-07-13T09:31:41.027Z,13.3
2018-07-13T09:32:41.061Z,13.43
2018-07-13T09:33:41.432Z,13.35
2018-07-13T09:34:41.089Z,13.2
2018-07-13T09:35:41.098Z,13.34
2018-07-13T09:36:41.038Z,13.51
2018-07-13T09:37:40.986Z,13.57
2018-07-13T09:38:41.014Z,13.42
2018-07-13T09:39:41.053Z,13.71
2018-07-13T09:40:41.098Z,13.44
2018-07-13T09:41:41.077Z,13.57
2018-07-13T09:42:41.005Z,13.61
2018-07-13T09:43:41.030Z,13.57
2018-07-13T09:44:40.979Z,13.62
2018-07-13T09:45:41.083Z,13.58
2018-07-13T09:46:41.426Z,13.49
2018-07-13T09:47:40.974Z,13.65
2018-07-13T09:48:40.990Z,13.59
2018-07-13T09:49:41.067Z,13.64
2018-07-13T09:50:41.004Z,13.72
2018-07-13T09:51:41.009Z,13.59
2018-07-13T09:52:41.021Z,13.6
2018-07-13T09:53:41.504Z,13.47
2018-07-13T09:54:41.016Z,13.14
2018-07-13T09:55:41.004Z,13.15
2018-07-13T09:56:41.170Z,13.25
2018-07-13T09:57:41.034Z,13.17
2018-07-13T09:58:41.072Z,13.12
2018-07-13T09:59:41.122Z,13.24
2018-07-13T10:00:42.324Z,13.18
2018-07-13T10:01:43.664Z,13.28
2018-07-13T10:02:41.057Z,13.46
2018-07-13T10:03:41.107Z,13.13
2018-07-13T10:04:41.067Z,13.12
2018-07-13T10:05:41.040Z,12.81
2018-07-13T10:06:41.066Z,12.56
2018-07-13T10:07:41.064Z,12.53
2018-07-13T10:08:41.054Z,12.64
2018-07-13T10:09:41.122Z,12.66
2018-07-13T10:10:41.043Z,12.71
2018-07-13T10:11:41.085Z,12.84
2018-07-13T10:12:41.057Z,13.03
2018-07-13T10:13:41.048Z,13.11
2018-07-13T10:14:41.063Z,12.75
2018-07-13T10:15:41.017Z,12.45
2018-07-13T10:16:41.206Z,12.59
2018-07-13T10:17:42.656Z,12.47
2018-07-13T10:18:41.136Z,12.26
2018-07-13T10:19:41.077Z,12.38
2018-07-13T10:20:41.339Z,12.39
2018-07-13T10:21:41.028Z,12.68
2018-07-13T10:22:41.097Z,12.59
2018-07-13T10:23:41.093Z,12.45
2018-07-13T10:24:41.102Z,12.71
2018-07-13T10:25:41.130Z,12.75
2018-07-13T10:26:41.054Z,12.44
2018-07-13T10:27:41.058Z,12.5
2018-07-13T10:28:41.292Z,12.53
2018-07-13T10:29:43.577Z,12.8
2018-07-13T10:30:41.192Z,12.84
2018-07-13T10:31:41.107Z,12.91
2018-07-13T10:32:41.150Z,12.98
2018-07-13T10:33:41.863Z,12.73
2018-07-13T10:34:41.194Z,12.78
2018-07-13T10:35:41.386Z,12.66
2018-07-13T10:36:41.033Z,13.03
2018-07-13T10:37:41.128Z,13.08
2018-07-13T10:38:41.059Z,13.03
2018-07-13T10:39:41.201Z,12.81
2018-07-13T10:40:41.079Z,12.75
2018-07-13T10:41:41.873Z,12.7
2018-07-13T10:42:41.133Z,12.76
2018-07-13T10:43:41.071Z,12.72
2018-07-13T10:44:41.104Z,12.62
2018-07-13T10:45:41.406Z,12.78
2018-07-13T10:46:41.148Z,12.77
2018-07-13T10:47:41.287Z,12.78
2018-07-13T10:48:41.149Z,12.85
2018-07-13T10:49:41.107Z,12.87
2018-07-13T10:50:41.102Z,13.04
2018-07-13T10:51:41.282Z,12.67
2018-07-13T10:52:41.036Z,12.56
2018-07-13T10:53:41.044Z,12.69
2018-07-13T10:54:41.070Z,12.62
2018-07-13T10:55:41.076Z,12.46
2018-07-13T10:56:41.034Z,12.38
2018-07-13T10:57:41.099Z,12.51
2018-07-13T10:58:41.637Z,12.29
2018-07-13T10:59:41.131Z,12.35
2018-07-13T11:00:41.072Z,12.33
2018-07-13T11:01:41.075Z,12.29
2018-07-13T11:02:41.062Z,12.23
2018-07-13T11:03:41.158Z,12.44
2018-07-13T11:04:41.116Z,12.41
2018-07-13T11:05:41.045Z,12.51
2018-07-13T11:06:41.124Z,12.15
2018-07-13T11:07:41.077Z,12.17
2018-07-13T11:08:41.166Z,12.33
2018-07-13T11:09:41.122Z,12.03
2018-07-13T11:10:41.024Z,11.97
2018-07-13T11:11:41.132Z,12.3
2018-07-13T11:12:41.091Z,12.24
2018-07-13T11:13:41.559Z,12.19
2018-07-13T11:14:41.137Z,12.32
2018-07-13T11:15:41.073Z,12.65
2018-07-13T11:16:41.061Z,12.63
2018-07-13T11:17:44.077Z,12.54
2018-07-13T11:18:41.701Z,12.66
2018-07-13T11:19:41.069Z,12.11
2018-07-13T11:20:41.073Z,12.24
2018-07-13T11:21:41.082Z,12.17
2018-07-13T11:22:41.095Z,12.35
2018-07-13T11:23:41.093Z,12.47
2018-07-13T11:24:42.051Z,12.31
2018-07-13T11:25:41.092Z,12.62
2018-07-13T11:26:41.105Z,12.59
2018-07-13T11:27:41.197Z,12.79
2018-07-13T11:28:41.074Z,12.7
2018-07-13T11:29:41.378Z,12.56
2018-07-13T11:30:41.189Z,12.45
2018-07-13T11:31:41.237Z,12.41
2018-07-13T11:32:41.121Z,12.33
2018-07-13T11:33:41.088Z,12.25
2018-07-13T11:34:41.170Z,12.51
2018-07-13T11:35:41.115Z,12.3
2018-07-13T11:36:41.684Z,12.14
2018-07-13T11:37:41.292Z,12.28
2018-07-13T11:38:41.109Z,12.26
2018-07-13T11:39:43.245Z,12.24
2018-07-13T11:40:41.140Z,12.07
2018-07-13T11:41:41.204Z,12.11
2018-07-13T11:42:41.071Z,12.11
2018-07-13T11:43:41.217Z,12.09
2018-07-13T11:44:41.104Z,11.93
2018-07-13T11:45:41.800Z,11.89
2018-07-13T11:46:41.244Z,12.04
2018-07-13T11:47:41.256Z,12.23
2018-07-13T11:48:41.127Z,12.06
2018-07-13T11:49:41.145Z,12.17
2018-07-13T11:50:41.261Z,12.1
2018-07-13T11:51:41.173Z,12.09
2018-07-13T11:52:41.189Z,11.95
2018-07-13T11:53:42.213Z,11.91
2018-07-13T11:54:43.345Z,11.87
2018-07-13T11:55:41.303Z,12
2018-07-13T11:56:41.322Z,12.12
2018-07-13T11:57:42.342Z,11.93
2018-07-13T11:58:41.256Z,12.21
2018-07-13T11:59:41.342Z,12.09
2018-07-13T12:00:41.797Z,11.99
2018-07-13T12:01:41.244Z,12.25
2018-07-13T12:02:41.162Z,12.21
2018-07-13T12:03:41.301Z,11.95
2018-07-13T12:04:41.489Z,12.22
2018-07-13T12:05:41.269Z,12.13
2018-07-13T12:06:41.287Z,12.24
2018-07-13T12:07:42.466Z,12.22
2018-07-13T12:08:41.186Z,12.1
2018-07-13T12:09:41.199Z,12.11
2018-07-13T12:10:41.204Z,12.11
2018-07-13T12:11:41.312Z,11.82
2018-07-13T12:12:41.754Z,11.78
2018-07-13T12:13:41.245Z,11.83
2018-07-13T12:14:41.849Z,12.22
2018-07-13T12:15:41.235Z,11.97
2018-07-13T12:16:41.775Z,11.7
2018-07-13T12:17:42.057Z,11.57
2018-07-13T12:18:41.248Z,11.78
2018-07-13T12:19:41.083Z,12.04
2018-07-13T12:20:41.141Z,11.94
2018-07-13T12:21:41.185Z,11.94
2018-07-13T12:22:41.294Z,12.14
2018-07-13T12:23:42.133Z,12.12
2018-07-13T12:24:41.212Z,12.19
2018-07-13T12:25:41.213Z,12.31
2018-07-13T12:26:41.149Z,12.36
2018-07-13T12:27:41.141Z,12.29
2018-07-13T12:28:41.120Z,12.27
2018-07-13T12:29:41.182Z,11.96
2018-07-13T12:30:41.147Z,11.55
2018-07-13T12:31:41.261Z,11.57
2018-07-13T12:32:41.344Z,11.87
2018-07-13T12:33:42.018Z,11.81
2018-07-13T12:34:41.229Z,11.93
2018-07-13T12:35:41.132Z,11.7
2018-07-13T12:36:41.304Z,11.52
2018-07-13T12:37:41.172Z,11.81
2018-07-13T12:38:41.193Z,11.85
2018-07-13T12:39:41.428Z,12.24
2018-07-13T12:40:41.202Z,12.27
2018-07-13T12:41:41.196Z,12.3
2018-07-13T12:42:41.337Z,11.98
2018-07-13T12:43:41.121Z,12.02
2018-07-13T12:44:41.194Z,11.73
2018-07-13T12:45:42.184Z,11.92
2018-07-13T12:46:41.177Z,12
2018-07-13T12:47:41.327Z,11.9
2018-07-13T12:48:41.505Z,11.91
2018-07-13T12:49:41.219Z,11.9
2018-07-13T12:50:41.116Z,12.18
2018-07-13T12:51:41.329Z,12.01
2018-07-13T12:52:41.337Z,11.91
2018-07-13T12:53:41.172Z,11.74
2018-07-13T12:54:42.187Z,11.55